createdAt,value
2024-05-09T00:00:39.058Z,95462.00
2024-05-09T00:01:33.764Z,95464.00
2024-05-09T00:02:32.702Z,95465.00
2024-05-09T00:03:32.768Z,95461.00
2024-05-09T00:04:32.759Z,95460.00
2024-05-09T00:05:32.840Z,95458.00
2024-05-09T00:06:32.714Z,95460.00
2024-05-09T00:07:32.748Z,95461.00
2024-05-09T00:08:32.744Z,95459.00
2024-05-09T00:09:32.720Z,95461.00
2024-05-09T00:10:37.194Z,95458.00
2024-05-09T00:11:33.833Z,95458.00
2024-05-09T00:12:32.775Z,95458.00
2024-05-09T00:13:32.767Z,95458.00
2024-05-09T00:14:32.853Z,95458.00
2024-05-09T00:15:32.768Z,95457.00
2024-05-09T00:16:32.770Z,95456.00
2024-05-09T00:17:32.961Z,95456.00
2024-05-09T00:18:32.915Z,95457.00
2024-05-09T00:19:32.888Z,95456.00
2024-05-09T00:20:38.042Z,95456.00
2024-05-09T00:21:33.790Z,95458.00
2024-05-09T00:22:32.807Z,95460.00
2024-05-09T00:23:33.019Z,95459.00
2024-05-09T00:24:32.789Z,95459.00
2024-05-09T00:25:32.792Z,95455.00
2024-05-09T00:26:32.875Z,95458.00
2024-05-09T00:27:32.801Z,95458.00
2024-05-09T00:28:32.790Z,95453.00
2024-05-09T00:29:32.955Z,95454.00
2024-05-09T00:30:35.488Z,95454.00
2024-05-09T00:31:32.791Z,95453.00
2024-05-09T00:32:33.063Z,95450.00
2024-05-09T00:33:32.907Z,95446.00
2024-05-09T00:34:32.822Z,95448.00
2024-05-09T00:35:32.953Z,95447.00
2024-05-09T00:36:32.833Z,95447.00
2024-05-09T00:37:32.820Z,95442.00
2024-05-09T00:38:32.905Z,95444.00
2024-05-09T00:39:32.823Z,95445.00
2024-05-09T00:40:38.926Z,95445.00
2024-05-09T00:41:33.927Z,95447.00
2024-05-09T00:42:32.830Z,95446.00
2024-05-09T00:43:32.905Z,95446.00
2024-05-09T00:44:32.857Z,95448.00
2024-05-09T00:45:32.835Z,95448.00
2024-05-09T00:46:32.825Z,95446.00
2024-05-09T00:47:32.999Z,95447.00
2024-05-09T00:48:32.981Z,95446.00
2024-05-09T00:49:32.951Z,95446.00
2024-05-09T00:50:36.492Z,95441.00
2024-05-09T00:51:32.836Z,95442.00
2024-05-09T00:52:32.830Z,95439.00
2024-05-09T00:53:32.908Z,95436.00
2024-05-09T00:54:32.830Z,95435.00
2024-05-09T00:55:32.850Z,95434.00
2024-05-09T00:56:32.859Z,95432.00
2024-05-09T00:57:32.847Z,95430.00
2024-05-09T00:58:32.858Z,95430.00
2024-05-09T00:59:32.868Z,95427.00
2024-05-09T01:00:38.693Z,95426.00
2024-05-09T01:01:33.973Z,95427.00
2024-05-09T01:02:32.961Z,95424.00
2024-05-09T01:03:33.067Z,95424.00
2024-05-09T01:04:32.860Z,95422.00
2024-05-09T01:05:32.937Z,95423.00
2024-05-09T01:06:32.850Z,95427.00
2024-05-09T01:07:32.848Z,95427.00
2024-05-09T01:08:32.911Z,95426.00
2024-05-09T01:09:32.833Z,95423.00
2024-05-09T01:10:35.111Z,95421.00
2024-05-09T01:11:32.968Z,95420.00
2024-05-09T01:12:32.913Z,95422.00
2024-05-09T01:13:32.849Z,95420.00
2024-05-09T01:14:32.866Z,95419.00
2024-05-09T01:15:32.867Z,95417.00
2024-05-09T01:16:32.842Z,95416.00
2024-05-09T01:17:32.924Z,95418.00
2024-05-09T01:18:32.914Z,95418.00
2024-05-09T01:19:33.021Z,95418.00
2024-05-09T01:20:40.916Z,95419.00
2024-05-09T01:21:33.870Z,95420.00
2024-05-09T01:22:32.847Z,95419.00
2024-05-09T01:23:32.928Z,95419.00
2024-05-09T01:24:32.848Z,95420.00
2024-05-09T01:25:32.857Z,95417.00
2024-05-09T01:26:32.925Z,95419.00
2024-05-09T01:27:32.863Z,95419.00
2024-05-09T01:28:32.892Z,95421.00
2024-05-09T01:29:32.861Z,95421.00
2024-05-09T01:30:35.804Z,95422.00
2024-05-09T01:31:32.899Z,95422.00
2024-05-09T01:32:32.974Z,95422.00
2024-05-09T01:33:33.398Z,95422.00
2024-05-09T01:34:32.875Z,95423.00
2024-05-09T01:35:32.899Z,95422.00
2024-05-09T01:36:32.875Z,95421.00
2024-05-09T01:37:32.910Z,95419.00
2024-05-09T01:38:33.076Z,95420.00
2024-05-09T01:39:32.881Z,95420.00
2024-05-09T01:40:37.560Z,95420.00
2024-05-09T01:41:33.982Z,95421.00
2024-05-09T01:42:32.878Z,95421.00
2024-05-09T01:43:32.881Z,95421.00
2024-05-09T01:44:32.941Z,95422.00
2024-05-09T01:45:33.052Z,95420.00
2024-05-09T01:46:32.932Z,95419.00
2024-05-09T01:47:33.122Z,95421.00
2024-05-09T01:48:32.943Z,95422.00
2024-05-09T01:49:32.931Z,95423.00
2024-05-09T01:50:38.981Z,95422.00
2024-05-09T01:51:33.916Z,95419.00
2024-05-09T01:52:32.930Z,95420.00
2024-05-09T01:53:33.014Z,95419.00
2024-05-09T01:54:32.935Z,95420.00
2024-05-09T01:55:32.915Z,95419.00
2024-05-09T01:56:33.079Z,95420.00
2024-05-09T01:57:32.924Z,95420.00
2024-05-09T01:58:32.970Z,95419.00
2024-05-09T01:59:33.094Z,95423.00
2024-05-09T02:00:38.996Z,95422.00
2024-05-09T02:01:55.483Z,95420.00
2024-05-09T02:02:34.019Z,95422.00
2024-05-09T02:03:33.045Z,95423.00
2024-05-09T02:04:32.967Z,95423.00
2024-05-09T02:05:32.986Z,95423.00
2024-05-09T02:06:32.952Z,95424.00
2024-05-09T02:07:33.239Z,95422.00
2024-05-09T02:08:33.122Z,95420.00
2024-05-09T02:09:32.925Z,95421.00
2024-05-09T02:10:33.561Z,95418.00
2024-05-09T02:11:32.996Z,95417.00
2024-05-09T02:12:33.101Z,95415.00
2024-05-09T02:13:32.978Z,95414.00
2024-05-09T02:14:32.963Z,95417.00
2024-05-09T02:15:32.937Z,95415.00
2024-05-09T02:16:32.954Z,95414.00
2024-05-09T02:17:33.058Z,95414.00
2024-05-09T02:18:33.055Z,95414.00
2024-05-09T02:19:33.257Z,95415.00
2024-05-09T02:20:36.367Z,95413.00
2024-05-09T02:21:32.984Z,95414.00
2024-05-09T02:22:32.993Z,95416.00
2024-05-09T02:23:33.061Z,95416.00
2024-05-09T02:24:32.979Z,95412.00
2024-05-09T02:25:33.144Z,95412.00
2024-05-09T02:26:32.991Z,95413.00
2024-05-09T02:27:32.964Z,95412.00
2024-05-09T02:28:32.959Z,95412.00
2024-05-09T02:29:33.082Z,95413.00
2024-05-09T02:30:39.103Z,95412.00
2024-05-09T02:31:33.997Z,95415.00
2024-05-09T02:32:33.162Z,95411.00
2024-05-09T02:33:33.394Z,95412.00
2024-05-09T02:34:33.076Z,95413.00
2024-05-09T02:35:33.071Z,95412.00
2024-05-09T02:36:32.994Z,95411.00
2024-05-09T02:37:32.992Z,95412.00
2024-05-09T02:38:33.098Z,95410.00
2024-05-09T02:39:32.999Z,95410.00
2024-05-09T02:40:37.194Z,95408.00
2024-05-09T02:41:34.013Z,95408.00
2024-05-09T02:42:33.005Z,95409.00
2024-05-09T02:43:33.018Z,95409.00
2024-05-09T02:44:33.029Z,95411.00
2024-05-09T02:45:33.188Z,95411.00
2024-05-09T02:46:33.028Z,95411.00
2024-05-09T02:47:33.177Z,95409.00
2024-05-09T02:48:33.193Z,95409.00
2024-05-09T02:49:33.090Z,95409.00
2024-05-09T02:50:38.068Z,95410.00
2024-05-09T02:51:34.042Z,95409.00
2024-05-09T02:52:33.031Z,95410.00
2024-05-09T02:53:33.073Z,95408.00
2024-05-09T02:54:33.028Z,95404.00
2024-05-09T02:55:33.235Z,95407.00
2024-05-09T02:56:33.096Z,95406.00
2024-05-09T02:57:33.037Z,95406.00
2024-05-09T02:58:33.015Z,95406.00
2024-05-09T02:59:33.061Z,95408.00
2024-05-09T03:00:38.966Z,95406.00
2024-05-09T03:01:34.129Z,95405.00
2024-05-09T03:02:33.205Z,95408.00
2024-05-09T03:03:33.288Z,95407.00
2024-05-09T03:04:33.160Z,95405.00
2024-05-09T03:05:33.266Z,95404.00
2024-05-09T03:06:33.051Z,95403.00
2024-05-09T03:07:33.041Z,95402.00
2024-05-09T03:08:33.143Z,95401.00
2024-05-09T03:09:33.058Z,95400.00
2024-05-09T03:10:36.380Z,95399.00
2024-05-09T03:11:34.162Z,95399.00
2024-05-09T03:12:34.065Z,95397.00
2024-05-09T03:13:33.052Z,95399.00
2024-05-09T03:14:33.106Z,95399.00
2024-05-09T03:15:33.292Z,95400.00
2024-05-09T03:16:33.085Z,95401.00
2024-05-09T03:17:33.323Z,95401.00
2024-05-09T03:18:33.159Z,95400.00
2024-05-09T03:19:33.202Z,95400.00
2024-05-09T03:20:35.415Z,95403.00
2024-05-09T03:21:33.107Z,95402.00
2024-05-09T03:22:33.092Z,95401.00
2024-05-09T03:23:33.117Z,95401.00
2024-05-09T03:24:33.104Z,95402.00
2024-05-09T03:25:33.116Z,95406.00
2024-05-09T03:26:33.116Z,95407.00
2024-05-09T03:27:33.106Z,95405.00
2024-05-09T03:28:33.116Z,95408.00
2024-05-09T03:29:33.167Z,95405.00
2024-05-09T03:30:40.511Z,95409.00
2024-05-09T03:31:34.107Z,95407.00
2024-05-09T03:32:33.256Z,95407.00
2024-05-09T03:33:33.332Z,95406.00
2024-05-09T03:34:33.127Z,95407.00
2024-05-09T03:35:33.155Z,95405.00
2024-05-09T03:36:33.108Z,95408.00
2024-05-09T03:37:33.162Z,95409.00
2024-05-09T03:38:33.228Z,95411.00
2024-05-09T03:39:33.127Z,95414.00
2024-05-09T03:40:33.130Z,95414.00
2024-05-09T03:41:33.299Z,95411.00
2024-05-09T03:42:33.140Z,95414.00
2024-05-09T03:43:33.120Z,95412.00
2024-05-09T03:44:33.233Z,95412.00
2024-05-09T03:45:33.210Z,95414.00
2024-05-09T03:46:33.225Z,95413.00
2024-05-09T03:47:33.411Z,95412.00
2024-05-09T03:48:33.350Z,95410.00
2024-05-09T03:49:33.423Z,95412.00
2024-05-09T03:50:35.642Z,95413.00
2024-05-09T03:51:33.312Z,95413.00
2024-05-09T03:52:33.349Z,95416.00
2024-05-09T03:53:33.501Z,95417.00
2024-05-09T03:54:33.349Z,95420.00
2024-05-09T03:55:33.346Z,95421.00
2024-05-09T03:56:33.352Z,95423.00
2024-05-09T03:57:33.353Z,95420.00
2024-05-09T03:58:33.334Z,95423.00
2024-05-09T03:59:33.395Z,95424.00
2024-05-09T04:00:38.104Z,95424.00
2024-05-09T04:01:34.424Z,95424.00
2024-05-09T04:02:33.437Z,95426.00
2024-05-09T04:03:33.525Z,95428.00
2024-05-09T04:04:33.451Z,95430.00
2024-05-09T04:05:33.487Z,95430.00
2024-05-09T04:06:33.362Z,95430.00
2024-05-09T04:07:33.375Z,95430.00
2024-05-09T04:08:33.510Z,95430.00
2024-05-09T04:09:33.377Z,95430.00
2024-05-09T04:10:34.911Z,95432.00
2024-05-09T04:11:33.481Z,95430.00
2024-05-09T04:12:33.451Z,95431.00
2024-05-09T04:13:33.361Z,95433.00
2024-05-09T04:14:33.428Z,95431.00
2024-05-09T04:15:33.439Z,95429.00
2024-05-09T04:16:33.369Z,95431.00
2024-05-09T04:17:33.548Z,95432.00
2024-05-09T04:18:33.660Z,95432.00
2024-05-09T04:19:33.658Z,95434.00
2024-05-09T04:20:38.677Z,95435.00
2024-05-09T04:21:34.600Z,95437.00
2024-05-09T04:22:33.604Z,95436.00
2024-05-09T04:23:33.806Z,95436.00
2024-05-09T04:24:33.604Z,95438.00
2024-05-09T04:25:33.654Z,95438.00
2024-05-09T04:26:33.689Z,95439.00
2024-05-09T04:27:33.619Z,95441.00
2024-05-09T04:28:33.622Z,95445.00
2024-05-09T04:29:33.693Z,95447.00
2024-05-09T04:30:38.278Z,95446.00
2024-05-09T04:31:34.626Z,95444.00
2024-05-09T04:32:33.732Z,95443.00
2024-05-09T04:33:33.825Z,95445.00
2024-05-09T04:34:33.793Z,95443.00
2024-05-09T04:35:33.685Z,95441.00
2024-05-09T04:36:33.638Z,95445.00
2024-05-09T04:37:33.652Z,95443.00
2024-05-09T04:38:33.789Z,95441.00
2024-05-09T04:39:41.327Z,95444.00
2024-05-09T04:40:41.376Z,95443.00
2024-05-09T04:41:41.494Z,95441.00
2024-05-09T04:42:41.514Z,95443.00
2024-05-09T04:43:41.569Z,95444.00
2024-05-09T04:44:41.603Z,95446.00
2024-05-09T04:45:41.683Z,95445.00
2024-05-09T04:46:41.738Z,95446.00
2024-05-09T04:47:41.967Z,95447.00
2024-05-09T04:48:41.975Z,95448.00
2024-05-09T04:49:41.909Z,95446.00
2024-05-09T04:50:42.024Z,95447.00
2024-05-09T04:51:42.005Z,95449.00
2024-05-09T04:52:42.057Z,95449.00
2024-05-09T04:53:42.126Z,95452.00
2024-05-09T04:54:42.158Z,95450.00
2024-05-09T04:55:42.221Z,95452.00
2024-05-09T04:56:42.339Z,95452.00
2024-05-09T04:57:42.366Z,95453.00
2024-05-09T04:58:42.432Z,95454.00
2024-05-09T04:59:42.437Z,95454.00
2024-05-09T05:00:42.604Z,95454.00
2024-05-09T05:01:42.590Z,95454.00
2024-05-09T05:02:42.766Z,95455.00
2024-05-09T05:03:42.911Z,95456.00
2024-05-09T05:04:42.878Z,95455.00
2024-05-09T05:05:43.413Z,95456.00
2024-05-09T05:06:42.858Z,95457.00
2024-05-09T05:07:42.899Z,95455.00
2024-05-09T05:08:43.005Z,95457.00
2024-05-09T05:09:42.996Z,95455.00
2024-05-09T05:10:43.084Z,95457.00
2024-05-09T05:11:43.170Z,95454.00
2024-05-09T05:12:43.111Z,95457.00
2024-05-09T05:13:43.182Z,95458.00
2024-05-09T05:14:43.205Z,95454.00
2024-05-09T05:15:43.252Z,95451.00
2024-05-09T05:16:43.285Z,95453.00
2024-05-09T05:17:43.596Z,95455.00
2024-05-09T05:18:43.457Z,95454.00
2024-05-09T05:19:43.603Z,95455.00
2024-05-09T05:20:43.632Z,95453.00
2024-05-09T05:21:43.567Z,95456.00
2024-05-09T05:22:43.599Z,95455.00
2024-05-09T05:23:43.659Z,95452.00
2024-05-09T05:24:43.633Z,95453.00
2024-05-09T05:25:43.730Z,95456.00
2024-05-09T05:26:43.713Z,95456.00
2024-05-09T05:27:43.703Z,95455.00
2024-05-09T05:28:43.714Z,95455.00
2024-05-09T05:29:43.839Z,95456.00
2024-05-09T05:30:43.850Z,95455.00
2024-05-09T05:31:43.932Z,95457.00
2024-05-09T05:32:44.088Z,95456.00
2024-05-09T05:33:44.063Z,95457.00
2024-05-09T05:34:44.043Z,95458.00
2024-05-09T05:35:44.112Z,95459.00
2024-05-09T05:36:44.081Z,95462.00
2024-05-09T05:37:44.157Z,95463.00
2024-05-09T05:38:44.306Z,95465.00
2024-05-09T05:39:44.172Z,95466.00
2024-05-09T05:40:44.335Z,95463.00
2024-05-09T05:41:44.287Z,95465.00
2024-05-09T05:42:44.300Z,95467.00
2024-05-09T05:43:44.449Z,95468.00
2024-05-09T05:44:44.354Z,95468.00
2024-05-09T05:45:44.442Z,95467.00
2024-05-09T05:46:44.509Z,95468.00
2024-05-09T05:47:44.780Z,95467.00
2024-05-09T05:48:44.599Z,95468.00
2024-05-09T05:49:44.514Z,95468.00
2024-05-09T05:50:44.676Z,95466.00
2024-05-09T05:51:44.625Z,95464.00
2024-05-09T05:52:44.762Z,95464.00
2024-05-09T05:53:44.774Z,95464.00
2024-05-09T05:54:44.727Z,95463.00
2024-05-09T05:55:44.836Z,95463.00
2024-05-09T05:56:44.912Z,95463.00
2024-05-09T05:57:44.906Z,95464.00
2024-05-09T05:58:45.145Z,95463.00
2024-05-09T05:59:45.061Z,95463.00
2024-05-09T06:00:45.218Z,95463.00
2024-05-09T06:01:45.159Z,95461.00
2024-05-09T06:02:45.327Z,95461.00
2024-05-09T06:03:45.304Z,95458.00
2024-05-09T06:04:45.366Z,95459.00
2024-05-09T06:05:45.270Z,95457.00
2024-05-09T06:06:45.332Z,95455.00
2024-05-09T06:07:45.403Z,95458.00
2024-05-09T06:08:45.510Z,95455.00
2024-05-09T06:09:47.611Z,95458.00
2024-05-09T06:10:45.514Z,95458.00
2024-05-09T06:11:45.603Z,95459.00
2024-05-09T06:12:45.447Z,95455.00
2024-05-09T06:13:45.506Z,95456.00
2024-05-09T06:14:45.419Z,95455.00
2024-05-09T06:15:45.431Z,95452.00
2024-05-09T06:16:45.465Z,95454.00
2024-05-09T06:17:45.743Z,95453.00
2024-05-09T06:18:45.563Z,95450.00
2024-05-09T06:19:45.587Z,95452.00
2024-05-09T06:20:45.486Z,95453.00
2024-05-09T06:21:45.453Z,95450.00
2024-05-09T06:22:45.441Z,95449.00
2024-05-09T06:23:45.494Z,95448.00
2024-05-09T06:24:45.449Z,95442.00
2024-05-09T06:25:45.471Z,95444.00
2024-05-09T06:26:45.440Z,95444.00
2024-05-09T06:27:45.530Z,95442.00
2024-05-09T06:28:45.499Z,95442.00
2024-05-09T06:29:45.448Z,95443.00
2024-05-09T06:30:45.493Z,95444.00
2024-05-09T06:31:45.530Z,95441.00
2024-05-09T06:32:45.567Z,95441.00
2024-05-09T06:33:45.585Z,95440.00
2024-05-09T06:34:45.628Z,95441.00
2024-05-09T06:35:45.542Z,95441.00
2024-05-09T06:36:45.463Z,95439.00
2024-05-09T06:37:45.486Z,95437.00
2024-05-09T06:38:45.539Z,95436.00
2024-05-09T06:39:45.471Z,95435.00
2024-05-09T06:40:45.786Z,95433.00
2024-05-09T06:41:45.463Z,95432.00
2024-05-09T06:42:45.474Z,95434.00
2024-05-09T06:43:45.540Z,95433.00
2024-05-09T06:44:45.525Z,95432.00
2024-05-09T06:45:45.486Z,95431.00
2024-05-09T06:46:45.714Z,95432.00
2024-05-09T06:47:45.568Z,95433.00
2024-05-09T06:48:45.849Z,95434.00
2024-05-09T06:49:45.547Z,95437.00
2024-05-09T06:50:45.622Z,95437.00
2024-05-09T06:51:45.484Z,95441.00
2024-05-09T06:52:45.554Z,95439.00
2024-05-09T06:53:45.613Z,95442.00
2024-05-09T06:54:45.624Z,95441.00
2024-05-09T06:55:45.729Z,95441.00
2024-05-09T06:56:45.682Z,95440.00
2024-05-09T06:57:45.688Z,95439.00
2024-05-09T06:58:45.780Z,95440.00
2024-05-09T06:59:45.774Z,95438.00
2024-05-09T07:00:45.911Z,95440.00
2024-05-09T07:01:45.938Z,95438.00
2024-05-09T07:02:46.068Z,95438.00
2024-05-09T07:03:46.085Z,95440.00
2024-05-09T07:04:46.100Z,95437.00
2024-05-09T07:05:47.084Z,95439.00
2024-05-09T07:06:46.107Z,95440.00
2024-05-09T07:07:46.264Z,95440.00
2024-05-09T07:08:47.409Z,95441.00
2024-05-09T07:09:46.304Z,95442.00
2024-05-09T07:10:46.586Z,95441.00
2024-05-09T07:11:46.518Z,95443.00
2024-05-09T07:12:46.462Z,95443.00
2024-05-09T07:13:46.527Z,95444.00
2024-05-09T07:14:46.606Z,95442.00
2024-05-09T07:15:46.542Z,95442.00
2024-05-09T07:16:46.702Z,95442.00
2024-05-09T07:17:46.821Z,95441.00
2024-05-09T07:18:46.920Z,95440.00
2024-05-09T07:19:46.856Z,95438.00
2024-05-09T07:20:47.394Z,95438.00
2024-05-09T07:21:46.886Z,95436.00
2024-05-09T07:22:46.925Z,95433.00
2024-05-09T07:23:47.551Z,95434.00
2024-05-09T07:24:47.064Z,95434.00
2024-05-09T07:25:47.332Z,95430.00
2024-05-09T07:26:47.217Z,95428.00
2024-05-09T07:27:47.236Z,95428.00
2024-05-09T07:28:47.327Z,95428.00
2024-05-09T07:29:47.406Z,95428.00
2024-05-09T07:30:47.354Z,95426.00
2024-05-09T07:31:47.409Z,95426.00
2024-05-09T07:32:47.853Z,95426.00
2024-05-09T07:33:47.522Z,95426.00
2024-05-09T07:34:47.502Z,95426.00
2024-05-09T07:35:47.590Z,95425.00
2024-05-09T07:36:47.548Z,95428.00
2024-05-09T07:37:47.621Z,95430.00
2024-05-09T07:38:47.732Z,95429.00
2024-05-09T07:39:47.688Z,95426.00
2024-05-09T07:40:47.838Z,95429.00
2024-05-09T07:41:47.810Z,95427.00
2024-05-09T07:42:47.832Z,95426.00
2024-05-09T07:43:47.891Z,95424.00
2024-05-09T07:44:47.937Z,95421.00
2024-05-09T07:45:53.093Z,95419.00
2024-05-09T07:47:48.786Z,95418.00
2024-05-09T07:49:13.626Z,95417.00
2024-05-09T07:53:17.300Z,95416.00
2024-05-09T07:53:34.820Z,95415.00
2024-05-09T07:53:52.210Z,95411.00
2024-05-09T07:54:49.276Z,95415.00
2024-05-09T07:55:48.059Z,95414.00
2024-05-09T07:56:48.079Z,95416.00
2024-05-09T07:57:48.027Z,95413.00
2024-05-09T07:58:47.975Z,95415.00
2024-05-09T07:59:47.976Z,95415.00
2024-05-09T08:00:48.176Z,95416.00
2024-05-09T08:01:48.059Z,95415.00
2024-05-09T08:02:48.048Z,95413.00
2024-05-09T08:03:48.195Z,95414.00
2024-05-09T08:04:48.164Z,95411.00
2024-05-09T08:05:48.032Z,95411.00
2024-05-09T08:06:48.068Z,95411.00
2024-05-09T08:07:48.012Z,95412.00
2024-05-09T08:08:47.987Z,95411.00
2024-05-09T08:09:48.025Z,95408.00
2024-05-09T08:10:48.066Z,95409.00
2024-05-09T08:11:48.024Z,95411.00
2024-05-09T08:12:48.037Z,95410.00
2024-05-09T08:13:48.044Z,95407.00
2024-05-09T08:14:47.995Z,95406.00
2024-05-09T08:15:48.055Z,95406.00
2024-05-09T08:16:48.044Z,95405.00
2024-05-09T08:17:48.115Z,95404.00
2024-05-09T08:18:48.094Z,95403.00
2024-05-09T08:19:48.083Z,95404.00
2024-05-09T08:20:48.012Z,95404.00
2024-05-09T08:21:48.053Z,95403.00
2024-05-09T08:22:48.037Z,95403.00
2024-05-09T08:23:48.018Z,95402.00
2024-05-09T08:24:48.059Z,95400.00
2024-05-09T08:25:48.120Z,95401.00
2024-05-09T08:26:48.146Z,95400.00
2024-05-09T08:27:48.176Z,95401.00
2024-05-09T08:28:48.186Z,95399.00
2024-05-09T08:29:48.267Z,95397.00
2024-05-09T08:30:48.563Z,95394.00
2024-05-09T08:31:48.390Z,95396.00
2024-05-09T08:32:48.541Z,95393.00
2024-05-09T08:33:48.756Z,95395.00
2024-05-09T08:34:48.425Z,95394.00
2024-05-09T08:35:48.425Z,95392.00
2024-05-09T08:36:48.502Z,95394.00
2024-05-09T08:37:48.578Z,95392.00
2024-05-09T08:38:48.545Z,95392.00
2024-05-09T08:39:48.683Z,95393.00
2024-05-09T08:40:48.776Z,95391.00
2024-05-09T08:41:48.664Z,95391.00
2024-05-09T08:42:48.792Z,95391.00
2024-05-09T08:43:48.763Z,95391.00
2024-05-09T08:44:48.846Z,95388.00
2024-05-09T08:45:48.868Z,95391.00
2024-05-09T08:46:48.880Z,95390.00
2024-05-09T08:47:48.924Z,95390.00
2024-05-09T08:48:49.063Z,95386.00
2024-05-09T08:49:49.042Z,95384.00
2024-05-09T08:50:49.164Z,95385.00
2024-05-09T08:51:49.146Z,95383.00
2024-05-09T08:52:49.192Z,95382.00
2024-05-09T08:53:49.263Z,95382.00
2024-05-09T08:54:49.338Z,95379.00
2024-05-09T08:55:49.323Z,95383.00
2024-05-09T08:56:49.376Z,95382.00
2024-05-09T08:57:49.465Z,95381.00
2024-05-09T08:58:49.571Z,95384.00
2024-05-09T08:59:49.519Z,95384.00
2024-05-09T09:00:49.996Z,95384.00
2024-05-09T09:01:49.684Z,95383.00
2024-05-09T09:02:49.754Z,95383.00
2024-05-09T09:03:49.870Z,95382.00
2024-05-09T09:04:50.136Z,95381.00
2024-05-09T09:05:49.823Z,95378.00
2024-05-09T09:06:49.896Z,95378.00
2024-05-09T09:07:49.955Z,95377.00
2024-05-09T09:08:49.948Z,95375.00
2024-05-09T09:09:50.027Z,95374.00
2024-05-09T09:10:50.092Z,95371.00
2024-05-09T09:11:50.140Z,95366.00
2024-05-09T09:12:50.197Z,95367.00
2024-05-09T09:13:50.167Z,95366.00
2024-05-09T09:14:50.174Z,95364.00
2024-05-09T09:15:50.351Z,95364.00
2024-05-09T09:16:50.273Z,95361.00
2024-05-09T09:17:50.450Z,95360.00
2024-05-09T09:18:50.588Z,95356.00
2024-05-09T09:19:50.442Z,95357.00
2024-05-09T09:20:50.497Z,95354.00
2024-05-09T09:21:50.623Z,95355.00
2024-05-09T09:22:50.567Z,95357.00
2024-05-09T09:23:50.586Z,95359.00
2024-05-09T09:24:50.653Z,95358.00
2024-05-09T09:25:50.803Z,95360.00
2024-05-09T09:26:50.721Z,95354.00
2024-05-09T09:27:50.827Z,95354.00
2024-05-09T09:28:50.855Z,95350.00
2024-05-09T09:29:50.903Z,95352.00
2024-05-09T09:30:51.080Z,95352.00
2024-05-09T09:31:51.350Z,95351.00
2024-05-09T09:32:51.073Z,95353.00
2024-05-09T09:33:51.306Z,95352.00
2024-05-09T09:34:51.127Z,95350.00
2024-05-09T09:35:51.104Z,95349.00
2024-05-09T09:36:51.226Z,95347.00
2024-05-09T09:37:51.192Z,95349.00
2024-05-09T09:38:51.263Z,95348.00
2024-05-09T09:39:51.341Z,95345.00
2024-05-09T09:40:51.485Z,95342.00
2024-05-09T09:41:51.410Z,95342.00
2024-05-09T09:42:51.564Z,95342.00
2024-05-09T09:43:51.554Z,95340.00
2024-05-09T09:45:01.824Z,95337.00
2024-05-09T09:45:53.528Z,95335.00
2024-05-09T09:46:51.635Z,95337.00
2024-05-09T09:47:51.718Z,95335.00
2024-05-09T09:48:51.788Z,95334.00
2024-05-09T09:49:51.723Z,95332.00
2024-05-09T09:50:51.740Z,95333.00
2024-05-09T09:51:51.774Z,95330.00
2024-05-09T09:52:51.734Z,95327.00
2024-05-09T09:53:51.769Z,95326.00
2024-05-09T09:54:51.938Z,95325.00
2024-05-09T09:55:51.865Z,95325.00
2024-05-09T09:56:51.946Z,95325.00
2024-05-09T09:57:52.075Z,95324.00
2024-05-09T09:58:52.008Z,95321.00
2024-05-09T09:59:52.056Z,95321.00
2024-05-09T10:00:52.212Z,95319.00
2024-05-09T10:01:52.229Z,95318.00
2024-05-09T10:02:52.249Z,95317.00
2024-05-09T10:03:52.458Z,95316.00
2024-05-09T10:04:52.412Z,95315.00
2024-05-09T10:05:52.385Z,95315.00
2024-05-09T10:06:52.368Z,95311.00
2024-05-09T10:07:52.389Z,95308.00
2024-05-09T10:08:52.446Z,95309.00
2024-05-09T10:09:52.469Z,95305.00
2024-05-09T10:10:52.778Z,95301.00
2024-05-09T10:11:59.575Z,95304.00
2024-05-09T10:12:53.603Z,95301.00
2024-05-09T10:13:52.535Z,95299.00
2024-05-09T10:14:52.564Z,95298.00
2024-05-09T10:15:52.931Z,95296.00
2024-05-09T10:16:52.560Z,95296.00
2024-05-09T10:17:52.673Z,95293.00
2024-05-09T10:18:52.825Z,95291.00
2024-05-09T10:19:52.723Z,95292.00
2024-05-09T10:20:52.558Z,95291.00
2024-05-09T10:21:52.631Z,95290.00
2024-05-09T10:22:52.540Z,95287.00
2024-05-09T10:23:52.581Z,95287.00
2024-05-09T10:24:52.627Z,95287.00
2024-05-09T10:25:52.575Z,95286.00
2024-05-09T10:26:52.554Z,95284.00
2024-05-09T10:27:52.566Z,95284.00
2024-05-09T10:28:52.591Z,95284.00
2024-05-09T10:29:52.580Z,95281.00
2024-05-09T10:30:52.639Z,95281.00
2024-05-09T10:31:52.658Z,95279.00
2024-05-09T10:32:52.753Z,95280.00
2024-05-09T10:33:53.320Z,95281.00
2024-05-09T10:34:52.758Z,95281.00
2024-05-09T10:35:52.753Z,95280.00
2024-05-09T10:36:52.884Z,95278.00
2024-05-09T10:37:52.951Z,95273.00
2024-05-09T10:38:52.979Z,95274.00
2024-05-09T10:39:53.106Z,95272.00
2024-05-09T10:40:53.076Z,95273.00
2024-05-09T10:41:53.118Z,95271.00
2024-05-09T10:42:53.186Z,95267.00
2024-05-09T10:43:53.238Z,95267.00
2024-05-09T10:44:53.264Z,95267.00
2024-05-09T10:45:53.486Z,95262.00
2024-05-09T10:46:53.425Z,95260.00
2024-05-09T10:47:53.552Z,95260.00
2024-05-09T10:48:53.666Z,95260.00
2024-05-09T10:49:53.742Z,95257.00
2024-05-09T10:50:53.632Z,95257.00
2024-05-09T10:51:53.746Z,95257.00
2024-05-09T10:52:53.744Z,95254.00
2024-05-09T10:53:53.791Z,95252.00
2024-05-09T10:54:53.850Z,95248.00
2024-05-09T10:55:53.868Z,95244.00
2024-05-09T10:56:53.901Z,95241.00
2024-05-09T10:57:53.986Z,95245.00
2024-05-09T10:58:53.942Z,95238.00
2024-05-09T10:59:53.970Z,95240.00
2024-05-09T11:00:54.163Z,95236.00
2024-05-09T11:01:54.230Z,95238.00
2024-05-09T11:02:54.188Z,95234.00
2024-05-09T11:03:54.411Z,95236.00
2024-05-09T11:04:54.283Z,95232.00
2024-05-09T11:05:54.338Z,95233.00
2024-05-09T11:06:54.376Z,95233.00
2024-05-09T11:07:54.354Z,95229.00
2024-05-09T11:08:54.388Z,95230.00
2024-05-09T11:09:54.452Z,95232.00
2024-05-09T11:10:54.546Z,95229.00
2024-05-09T11:11:54.554Z,95228.00
2024-05-09T11:12:54.533Z,95228.00
2024-05-09T11:13:54.528Z,95228.00
2024-05-09T11:14:54.546Z,95227.00
2024-05-09T11:15:54.782Z,95221.00
2024-05-09T11:16:54.604Z,95221.00
2024-05-09T11:17:54.787Z,95221.00
2024-05-09T11:18:55.110Z,95218.00
2024-05-09T11:19:54.812Z,95219.00
2024-05-09T11:20:54.787Z,95213.00
2024-05-09T11:21:54.853Z,95214.00
2024-05-09T11:23:11.903Z,95216.00
2024-05-09T11:24:11.971Z,95216.00
2024-05-09T11:25:12.013Z,95214.00
2024-05-09T11:26:11.888Z,95210.00
2024-05-09T11:27:11.947Z,95209.00
2024-05-09T11:28:11.997Z,95208.00
2024-05-09T11:29:12.244Z,95207.00
2024-05-09T11:30:20.828Z,95206.00
2024-05-09T11:31:12.951Z,95207.00
2024-05-09T11:32:11.998Z,95209.00
2024-05-09T11:33:11.982Z,95207.00
2024-05-09T11:34:11.969Z,95205.00
2024-05-09T11:35:11.915Z,95203.00
2024-05-09T11:36:11.915Z,95199.00
2024-05-09T11:37:12.041Z,95197.00
2024-05-09T11:38:11.943Z,95194.00
2024-05-09T11:39:11.953Z,95195.00
2024-05-09T11:40:20.733Z,95191.00
2024-05-09T11:41:12.950Z,95190.00
2024-05-09T11:42:11.971Z,95188.00
2024-05-09T11:43:12.132Z,95190.00
2024-05-09T11:44:11.937Z,95190.00
2024-05-09T11:45:11.956Z,95187.00
2024-05-09T11:46:12.119Z,95186.00
2024-05-09T11:47:12.006Z,95189.00
2024-05-09T11:48:12.046Z,95185.00